sensor_id;sensor_type;location;lat;lon;timestamp;temperature;humidity
38020;DHT22;23829;51.350;17.286;2023-02-28T00:00:37;19.50;29.40
38020;DHT22;23829;51.350;17.286;2023-02-28T00:03:16;19.50;29.00
38020;DHT22;23829;51.350;17.286;2023-02-28T00:05:43;19.50;29.30
38020;DHT22;23829;51.350;17.286;2023-02-28T00:08:09;19.50;29.30
38020;DHT22;23829;51.350;17.286;2023-02-28T00:10:36;19.60;29.30
38020;DHT22;23829;51.350;17.286;2023-02-28T00:13:04;19.50;29.30
38020;DHT22;23829;51.350;17.286;2023-02-28T00:15:32;19.40;29.30
38020;DHT22;23829;51.350;17.286;2023-02-28T00:17:59;19.50;29.30
38020;DHT22;23829;51.350;17.286;2023-02-28T00:20:26;19.70;29.30
38020;DHT22;23829;51.350;17.286;2023-02-28T00:22:53;19.70;29.10
38020;DHT22;23829;51.350;17.286;2023-02-28T00:25:23;19.70;29.20
38020;DHT22;23829;51.350;17.286;2023-02-28T00:27:49;19.70;29.40
38020;DHT22;23829;51.350;17.286;2023-02-28T00:30:19;19.70;29.20
38020;DHT22;23829;51.350;17.286;2023-02-28T00:32:45;19.60;29.20
38020;DHT22;23829;51.350;17.286;2023-02-28T00:35:12;19.60;29.30
38020;DHT22;23829;51.350;17.286;2023-02-28T00:37:41;19.60;29.50
38020;DHT22;23829;51.350;17.286;2023-02-28T00:40:09;19.60;29.40
38020;DHT22;23829;51.350;17.286;2023-02-28T00:42:37;19.70;29.20
38020;DHT22;23829;51.350;17.286;2023-02-28T00:45:04;19.70;29.30
38020;DHT22;23829;51.350;17.286;2023-02-28T00:47:31;19.60;29.50
38020;DHT22;23829;51.350;17.286;2023-02-28T00:49:58;19.50;29.40
38020;DHT22;23829;51.350;17.286;2023-02-28T00:52:24;19.50;29.60
38020;DHT22;23829;51.350;17.286;2023-02-28T00:54:51;19.30;29.60
38020;DHT22;23829;51.350;17.286;2023-02-28T00:57:17;19.30;29.90
38020;DHT22;23829;51.350;17.286;2023-02-28T00:59:43;19.30;29.90
38020;DHT22;23829;51.350;17.286;2023-02-28T01:02:10;19.60;29.60
38020;DHT22;23829;51.350;17.286;2023-02-28T01:04:37;19.60;29.50
38020;DHT22;23829;51.350;17.286;2023-02-28T01:07:03;19.50;29.80
38020;DHT22;23829;51.350;17.286;2023-02-28T01:09:30;19.30;29.90
38020;DHT22;23829;51.350;17.286;2023-02-28T01:11:58;19.50;29.80
38020;DHT22;23829;51.350;17.286;2023-02-28T01:14:24;19.50;29.80
38020;DHT22;23829;51.350;17.286;2023-02-28T01:16:50;19.50;29.70
38020;DHT22;23829;51.350;17.286;2023-02-28T01:19:17;19.50;29.80
38020;DHT22;23829;51.350;17.286;2023-02-28T01:21:44;19.60;29.70
38020;DHT22;23829;51.350;17.286;2023-02-28T01:24:12;19.60;29.30
38020;DHT22;23829;51.350;17.286;2023-02-28T01:26:39;19.40;29.50
38020;DHT22;23829;51.350;17.286;2023-02-28T01:29:07;19.40;29.80
38020;DHT22;23829;51.350;17.286;2023-02-28T01:31:33;19.50;29.60
38020;DHT22;23829;51.350;17.286;2023-02-28T01:34:00;19.60;29.60
38020;DHT22;23829;51.350;17.286;2023-02-28T01:36:28;19.50;29.50
38020;DHT22;23829;51.350;17.286;2023-02-28T01:38:55;19.40;29.60
38020;DHT22;23829;51.350;17.286;2023-02-28T01:41:26;19.30;29.70
38020;DHT22;23829;51.350;17.286;2023-02-28T01:44:05;19.40;29.80
38020;DHT22;23829;51.350;17.286;2023-02-28T01:46:34;19.40;29.60
38020;DHT22;23829;51.350;17.286;2023-02-28T01:49:13;19.10;29.70
38020;DHT22;23829;51.350;17.286;2023-02-28T01:51:44;19.10;29.80
38020;DHT22;23829;51.350;17.286;2023-02-28T01:54:16;19.20;29.70
38020;DHT22;23829;51.350;17.286;2023-02-28T01:56:46;19.20;29.60
38020;DHT22;23829;51.350;17.286;2023-02-28T01:59:20;19.30;29.50
38020;DHT22;23829;51.350;17.286;2023-02-28T02:01:48;19.30;29.60
38020;DHT22;23829;51.350;17.286;2023-02-28T02:04:15;19.20;29.60
38020;DHT22;23829;51.350;17.286;2023-02-28T02:06:44;19.20;29.60
38020;DHT22;23829;51.350;17.286;2023-02-28T02:09:11;19.10;29.80
38020;DHT22;23829;51.350;17.286;2023-02-28T02:11:41;19.30;29.70
38020;DHT22;23829;51.350;17.286;2023-02-28T02:17:26;19.30;29.60
38020;DHT22;23829;51.350;17.286;2023-02-28T02:25:45;19.30;29.40
38020;DHT22;23829;51.350;17.286;2023-02-28T02:28:34;19.20;29.40
38020;DHT22;23829;51.350;17.286;2023-02-28T02:40:08;19.30;29.20
38020;DHT22;23829;51.350;17.286;2023-02-28T02:43:02;19.30;29.30
38020;DHT22;23829;51.350;17.286;2023-02-28T02:45:37;19.30;29.20
38020;DHT22;23829;51.350;17.286;2023-02-28T02:48:08;19.30;28.70
38020;DHT22;23829;51.350;17.286;2023-02-28T02:50:42;19.30;28.90
38020;DHT22;23829;51.350;17.286;2023-02-28T02:53:11;19.30;29.20
38020;DHT22;23829;51.350;17.286;2023-02-28T02:55:41;19.30;29.30
38020;DHT22;23829;51.350;17.286;2023-02-28T02:58:16;19.30;29.00
38020;DHT22;23829;51.350;17.286;2023-02-28T03:00:46;19.30;29.20
38020;DHT22;23829;51.350;17.286;2023-02-28T03:03:15;19.30;29.00
38020;DHT22;23829;51.350;17.286;2023-02-28T03:05:49;19.30;28.90
38020;DHT22;23829;51.350;17.286;2023-02-28T03:08:16;19.40;29.10
38020;DHT22;23829;51.350;17.286;2023-02-28T03:10:49;19.30;29.00
38020;DHT22;23829;51.350;17.286;2023-02-28T03:27:21;19.30;28.30
38020;DHT22;23829;51.350;17.286;2023-02-28T03:30:03;19.30;28.10
38020;DHT22;23829;51.350;17.286;2023-02-28T03:32:35;19.30;28.20
38020;DHT22;23829;51.350;17.286;2023-02-28T03:35:24;19.30;28.50
38020;DHT22;23829;51.350;17.286;2023-02-28T03:38:05;19.40;28.10
38020;DHT22;23829;51.350;17.286;2023-02-28T03:40:37;19.60;27.80
38020;DHT22;23829;51.350;17.286;2023-02-28T03:43:07;19.30;28.30
38020;DHT22;23829;51.350;17.286;2023-02-28T03:45:38;19.20;28.70
38020;DHT22;23829;51.350;17.286;2023-02-28T03:48:15;19.30;28.80
38020;DHT22;23829;51.350;17.286;2023-02-28T03:50:48;19.20;28.70
38020;DHT22;23829;51.350;17.286;2023-02-28T03:55:58;19.20;28.80
38020;DHT22;23829;51.350;17.286;2023-02-28T03:58:30;19.30;28.90
38020;DHT22;23829;51.350;17.286;2023-02-28T04:01:08;19.50;28.40
38020;DHT22;23829;51.350;17.286;2023-02-28T04:03:37;19.50;28.30
38020;DHT22;23829;51.350;17.286;2023-02-28T04:06:08;19.40;28.60
38020;DHT22;23829;51.350;17.286;2023-02-28T04:08:38;19.30;28.70
38020;DHT22;23829;51.350;17.286;2023-02-28T04:11:21;19.40;28.30
38020;DHT22;23829;51.350;17.286;2023-02-28T04:13:48;19.40;28.40
38020;DHT22;23829;51.350;17.286;2023-02-28T04:16:14;19.40;28.60
38020;DHT22;23829;51.350;17.286;2023-02-28T04:18:42;19.30;28.50
38020;DHT22;23829;51.350;17.286;2023-02-28T04:21:11;19.30;28.70
38020;DHT22;23829;51.350;17.286;2023-02-28T04:23:38;19.50;28.50
38020;DHT22;23829;51.350;17.286;2023-02-28T04:26:05;19.30;28.60
38020;DHT22;23829;51.350;17.286;2023-02-28T04:28:32;19.30;28.90
38020;DHT22;23829;51.350;17.286;2023-02-28T04:31:01;19.30;28.70
38020;DHT22;23829;51.350;17.286;2023-02-28T04:33:28;19.40;28.60
38020;DHT22;23829;51.350;17.286;2023-02-28T04:36:03;19.50;28.50
38020;DHT22;23829;51.350;17.286;2023-02-28T04:38:33;19.30;28.70
38020;DHT22;23829;51.350;17.286;2023-02-28T04:41:00;19.20;28.80
38020;DHT22;23829;51.350;17.286;2023-02-28T04:43:27;19.20;28.90
38020;DHT22;23829;51.350;17.286;2023-02-28T04:45:55;19.50;28.60
38020;DHT22;23829;51.350;17.286;2023-02-28T04:48:27;19.30;28.80
38020;DHT22;23829;51.350;17.286;2023-02-28T04:50:54;19.20;29.10
38020;DHT22;23829;51.350;17.286;2023-02-28T04:53:21;19.00;29.20
38020;DHT22;23829;51.350;17.286;2023-02-28T04:55:47;19.10;29.00
38020;DHT22;23829;51.350;17.286;2023-02-28T04:58:14;19.00;29.10
38020;DHT22;23829;51.350;17.286;2023-02-28T05:00:40;19.00;29.10
38020;DHT22;23829;51.350;17.286;2023-02-28T05:03:06;19.10;28.80
38020;DHT22;23829;51.350;17.286;2023-02-28T05:05:33;19.10;28.90
38020;DHT22;23829;51.350;17.286;2023-02-28T05:07:59;19.20;28.80
38020;DHT22;23829;51.350;17.286;2023-02-28T05:10:26;19.00;28.90
38020;DHT22;23829;51.350;17.286;2023-02-28T05:12:52;19.00;29.10
38020;DHT22;23829;51.350;17.286;2023-02-28T05:15:19;18.90;29.20
38020;DHT22;23829;51.350;17.286;2023-02-28T05:17:45;18.90;29.30
38020;DHT22;23829;51.350;17.286;2023-02-28T05:20:12;18.80;29.20
38020;DHT22;23829;51.350;17.286;2023-02-28T05:22:42;18.80;29.00
38020;DHT22;23829;51.350;17.286;2023-02-28T05:25:19;18.80;29.00
38020;DHT22;23829;51.350;17.286;2023-02-28T05:27:46;18.70;29.10
38020;DHT22;23829;51.350;17.286;2023-02-28T05:30:12;18.80;28.90
38020;DHT22;23829;51.350;17.286;2023-02-28T05:32:39;18.80;29.00
38020;DHT22;23829;51.350;17.286;2023-02-28T05:35:13;18.70;29.00
38020;DHT22;23829;51.350;17.286;2023-02-28T05:37:39;18.70;29.00
38020;DHT22;23829;51.350;17.286;2023-02-28T05:40:07;18.70;28.70
38020;DHT22;23829;51.350;17.286;2023-02-28T05:42:37;18.60;28.90
38020;DHT22;23829;51.350;17.286;2023-02-28T05:45:04;18.80;28.50
38020;DHT22;23829;51.350;17.286;2023-02-28T05:47:31;18.90;28.40
38020;DHT22;23829;51.350;17.286;2023-02-28T05:49:58;18.70;28.60
38020;DHT22;23829;51.350;17.286;2023-02-28T05:52:24;18.70;28.50
38020;DHT22;23829;51.350;17.286;2023-02-28T05:54:51;18.60;28.40
38020;DHT22;23829;51.350;17.286;2023-02-28T05:57:17;18.50;28.70
38020;DHT22;23829;51.350;17.286;2023-02-28T05:59:44;18.40;28.70
38020;DHT22;23829;51.350;17.286;2023-02-28T06:02:14;18.40;28.90
38020;DHT22;23829;51.350;17.286;2023-02-28T06:04:42;18.30;28.90
38020;DHT22;23829;51.350;17.286;2023-02-28T06:07:09;18.40;28.80
38020;DHT22;23829;51.350;17.286;2023-02-28T06:09:36;18.40;28.80
38020;DHT22;23829;51.350;17.286;2023-02-28T06:12:04;18.30;29.00
38020;DHT22;23829;51.350;17.286;2023-02-28T06:14:33;18.30;29.00
38020;DHT22;23829;51.350;17.286;2023-02-28T06:17:00;18.30;29.10
38020;DHT22;23829;51.350;17.286;2023-02-28T06:19:27;18.30;29.20
38020;DHT22;23829;51.350;17.286;2023-02-28T06:21:55;18.30;29.10
38020;DHT22;23829;51.350;17.286;2023-02-28T06:24:24;18.20;29.30
38020;DHT22;23829;51.350;17.286;2023-02-28T06:26:50;18.20;29.60
38020;DHT22;23829;51.350;17.286;2023-02-28T06:29:17;18.30;29.50
38020;DHT22;23829;51.350;17.286;2023-02-28T06:31:45;18.40;29.30
38020;DHT22;23829;51.350;17.286;2023-02-28T06:34:13;18.40;29.30
38020;DHT22;23829;51.350;17.286;2023-02-28T06:36:40;18.40;29.40
38020;DHT22;23829;51.350;17.286;2023-02-28T06:39:08;18.40;29.50
38020;DHT22;23829;51.350;17.286;2023-02-28T06:41:35;18.40;29.40
38020;DHT22;23829;51.350;17.286;2023-02-28T06:44:05;18.40;29.50
38020;DHT22;23829;51.350;17.286;2023-02-28T06:46:32;18.40;29.60
38020;DHT22;23829;51.350;17.286;2023-02-28T06:48:58;18.40;29.70
38020;DHT22;23829;51.350;17.286;2023-02-28T06:51:25;18.70;29.60
38020;DHT22;23829;51.350;17.286;2023-02-28T06:53:53;18.50;29.70
38020;DHT22;23829;51.350;17.286;2023-02-28T06:56:20;18.50;29.80
38020;DHT22;23829;51.350;17.286;2023-02-28T06:58:49;18.50;29.80
38020;DHT22;23829;51.350;17.286;2023-02-28T07:01:15;18.50;29.90
38020;DHT22;23829;51.350;17.286;2023-02-28T07:03:42;18.70;29.80
38020;DHT22;23829;51.350;17.286;2023-02-28T07:06:08;18.90;29.50
38020;DHT22;23829;51.350;17.286;2023-02-28T07:08:35;18.90;29.60
38020;DHT22;23829;51.350;17.286;2023-02-28T07:11:02;19.00;29.50
38020;DHT22;23829;51.350;17.286;2023-02-28T07:13:29;18.80;29.80
38020;DHT22;23829;51.350;17.286;2023-02-28T07:15:58;18.60;29.90
38020;DHT22;23829;51.350;17.286;2023-02-28T07:18:25;18.60;30.00
38020;DHT22;23829;51.350;17.286;2023-02-28T07:20:52;18.90;29.90
38020;DHT22;23829;51.350;17.286;2023-02-28T07:23:19;18.80;29.90
38020;DHT22;23829;51.350;17.286;2023-02-28T07:25:46;18.80;30.00
38020;DHT22;23829;51.350;17.286;2023-02-28T07:28:13;18.60;30.00
38020;DHT22;23829;51.350;17.286;2023-02-28T07:30:40;18.80;30.00
38020;DHT22;23829;51.350;17.286;2023-02-28T07:33:07;18.60;30.20
38020;DHT22;23829;51.350;17.286;2023-02-28T07:35:34;18.30;30.50
38020;DHT22;23829;51.350;17.286;2023-02-28T07:38:02;18.20;30.60
38020;DHT22;23829;51.350;17.286;2023-02-28T07:40:29;18.20;30.90
38020;DHT22;23829;51.350;17.286;2023-02-28T07:42:56;18.50;30.60
38020;DHT22;23829;51.350;17.286;2023-02-28T07:45:22;18.50;30.40
38020;DHT22;23829;51.350;17.286;2023-02-28T07:47:48;18.20;30.90
38020;DHT22;23829;51.350;17.286;2023-02-28T07:50:15;17.80;31.70
38020;DHT22;23829;51.350;17.286;2023-02-28T07:52:42;18.00;31.50
38020;DHT22;23829;51.350;17.286;2023-02-28T07:55:09;17.20;32.50
38020;DHT22;23829;51.350;17.286;2023-02-28T07:57:36;17.10;33.10
38020;DHT22;23829;51.350;17.286;2023-02-28T08:00:05;16.90;33.40
38020;DHT22;23829;51.350;17.286;2023-02-28T08:02:37;17.10;33.00
38020;DHT22;23829;51.350;17.286;2023-02-28T08:05:05;17.40;32.30
38020;DHT22;23829;51.350;17.286;2023-02-28T08:07:32;18.10;31.70
38020;DHT22;23829;51.350;17.286;2023-02-28T08:09:59;18.00;31.20
38020;DHT22;23829;51.350;17.286;2023-02-28T08:12:26;18.30;30.70
38020;DHT22;23829;51.350;17.286;2023-02-28T08:14:52;17.80;31.20
38020;DHT22;23829;51.350;17.286;2023-02-28T08:17:18;17.70;31.70
38020;DHT22;23829;51.350;17.286;2023-02-28T08:19:45;17.60;31.70
38020;DHT22;23829;51.350;17.286;2023-02-28T08:22:12;18.10;30.90
38020;DHT22;23829;51.350;17.286;2023-02-28T08:24:40;18.50;29.60
38020;DHT22;23829;51.350;17.286;2023-02-28T08:27:06;18.80;29.30
38020;DHT22;23829;51.350;17.286;2023-02-28T08:29:33;18.60;29.00
38020;DHT22;23829;51.350;17.286;2023-02-28T08:31:59;18.60;29.00
38020;DHT22;23829;51.350;17.286;2023-02-28T08:34:25;18.80;28.20
38020;DHT22;23829;51.350;17.286;2023-02-28T08:36:52;18.70;28.50
38020;DHT22;23829;51.350;17.286;2023-02-28T08:39:19;18.70;28.40
38020;DHT22;23829;51.350;17.286;2023-02-28T08:41:46;18.90;28.40
38020;DHT22;23829;51.350;17.286;2023-02-28T08:44:12;19.00;29.00
38020;DHT22;23829;51.350;17.286;2023-02-28T08:46:39;18.80;29.00
38020;DHT22;23829;51.350;17.286;2023-02-28T08:49:05;19.30;28.40
38020;DHT22;23829;51.350;17.286;2023-02-28T08:51:31;19.00;28.60
38020;DHT22;23829;51.350;17.286;2023-02-28T08:54:00;18.70;28.60
38020;DHT22;23829;51.350;17.286;2023-02-28T08:56:27;18.90;28.90
38020;DHT22;23829;51.350;17.286;2023-02-28T08:58:56;18.50;29.00
38020;DHT22;23829;51.350;17.286;2023-02-28T09:01:25;18.00;29.60
38020;DHT22;23829;51.350;17.286;2023-02-28T09:03:53;18.40;28.60
38020;DHT22;23829;51.350;17.286;2023-02-28T09:06:22;18.90;27.60
38020;DHT22;23829;51.350;17.286;2023-02-28T09:08:49;18.70;28.60
38020;DHT22;23829;51.350;17.286;2023-02-28T09:11:16;18.90;28.60
38020;DHT22;23829;51.350;17.286;2023-02-28T09:13:45;19.00;28.10
38020;DHT22;23829;51.350;17.286;2023-02-28T09:16:14;18.80;28.10
38020;DHT22;23829;51.350;17.286;2023-02-28T09:18:42;19.00;28.90
38020;DHT22;23829;51.350;17.286;2023-02-28T09:21:11;19.30;28.30
38020;DHT22;23829;51.350;17.286;2023-02-28T09:23:43;19.40;28.10
38020;DHT22;23829;51.350;17.286;2023-02-28T09:26:23;19.40;28.00
38020;DHT22;23829;51.350;17.286;2023-02-28T09:28:50;19.60;28.40
38020;DHT22;23829;51.350;17.286;2023-02-28T09:31:23;19.10;27.80
38020;DHT22;23829;51.350;17.286;2023-02-28T09:44:44;19.20;26.40
38020;DHT22;23829;51.350;17.286;2023-02-28T09:47:29;20.20;24.30
38020;DHT22;23829;51.350;17.286;2023-02-28T09:49:58;19.80;25.10
38020;DHT22;23829;51.350;17.286;2023-02-28T09:52:30;19.60;25.10
38020;DHT22;23829;51.350;17.286;2023-02-28T09:57:42;19.60;24.30
38020;DHT22;23829;51.350;17.286;2023-02-28T10:00:21;19.80;24.30
38020;DHT22;23829;51.350;17.286;2023-02-28T10:08:25;19.40;25.10
38020;DHT22;23829;51.350;17.286;2023-02-28T10:11:05;19.30;24.80
38020;DHT22;23829;51.350;17.286;2023-02-28T10:16:14;18.60;25.60
38020;DHT22;23829;51.350;17.286;2023-02-28T10:18:47;18.60;25.90
38020;DHT22;23829;51.350;17.286;2023-02-28T10:21:46;18.80;26.20
38020;DHT22;23829;51.350;17.286;2023-02-28T10:24:23;18.80;26.00
38020;DHT22;23829;51.350;17.286;2023-02-28T10:26:59;18.90;26.00
38020;DHT22;23829;51.350;17.286;2023-02-28T10:29:27;19.00;26.00
38020;DHT22;23829;51.350;17.286;2023-02-28T10:31:53;19.40;25.10
38020;DHT22;23829;51.350;17.286;2023-02-28T10:34:20;19.50;25.40
38020;DHT22;23829;51.350;17.286;2023-02-28T10:36:47;19.50;25.30
38020;DHT22;23829;51.350;17.286;2023-02-28T10:39:35;19.40;25.00
38020;DHT22;23829;51.350;17.286;2023-02-28T10:42:02;19.20;25.30
38020;DHT22;23829;51.350;17.286;2023-02-28T10:44:29;19.30;24.90
38020;DHT22;23829;51.350;17.286;2023-02-28T10:46:56;19.60;24.70
38020;DHT22;23829;51.350;17.286;2023-02-28T10:49:27;19.50;24.70
38020;DHT22;23829;51.350;17.286;2023-02-28T10:51:57;19.00;24.80
38020;DHT22;23829;51.350;17.286;2023-02-28T10:54:36;18.50;25.10
38020;DHT22;23829;51.350;17.286;2023-02-28T10:57:22;18.90;25.50
38020;DHT22;23829;51.350;17.286;2023-02-28T10:59:52;19.10;25.00
38020;DHT22;23829;51.350;17.286;2023-02-28T11:02:31;19.20;24.70
38020;DHT22;23829;51.350;17.286;2023-02-28T11:04:59;19.50;24.60
38020;DHT22;23829;51.350;17.286;2023-02-28T11:07:26;19.70;23.70
38020;DHT22;23829;51.350;17.286;2023-02-28T11:09:55;20.40;23.40
38020;DHT22;23829;51.350;17.286;2023-02-28T11:12:40;19.70;23.80
38020;DHT22;23829;51.350;17.286;2023-02-28T11:15:29;19.80;23.90
38020;DHT22;23829;51.350;17.286;2023-02-28T11:20:49;19.30;24.30
38020;DHT22;23829;51.350;17.286;2023-02-28T11:23:17;19.80;24.10
38020;DHT22;23829;51.350;17.286;2023-02-28T11:25:50;20.10;23.90
38020;DHT22;23829;51.350;17.286;2023-02-28T11:28:35;20.10;24.40
38020;DHT22;23829;51.350;17.286;2023-02-28T11:31:09;20.10;23.90
38020;DHT22;23829;51.350;17.286;2023-02-28T11:33:54;20.40;23.80
38020;DHT22;23829;51.350;17.286;2023-02-28T11:36:28;19.90;24.20
38020;DHT22;23829;51.350;17.286;2023-02-28T11:38:59;19.40;25.00
38020;DHT22;23829;51.350;17.286;2023-02-28T11:46:56;19.30;25.00
38020;DHT22;23829;51.350;17.286;2023-02-28T11:49:35;18.90;25.10
38020;DHT22;23829;51.350;17.286;2023-02-28T11:52:06;19.30;24.80
38020;DHT22;23829;51.350;17.286;2023-02-28T11:54:51;19.70;24.70
38020;DHT22;23829;51.350;17.286;2023-02-28T12:03:03;20.70;22.90
38020;DHT22;23829;51.350;17.286;2023-02-28T12:11:14;19.70;24.40
38020;DHT22;23829;51.350;17.286;2023-02-28T12:13:53;20.20;24.40
38020;DHT22;23829;51.350;17.286;2023-02-28T12:16:37;19.70;24.30
38020;DHT22;23829;51.350;17.286;2023-02-28T12:22:27;19.70;24.90
38020;DHT22;23829;51.350;17.286;2023-02-28T12:27:55;19.40;25.30
38020;DHT22;23829;51.350;17.286;2023-02-28T12:30:34;19.40;24.80
38020;DHT22;23829;51.350;17.286;2023-02-28T12:33:14;19.50;25.10
38020;DHT22;23829;51.350;17.286;2023-02-28T12:35:52;19.60;25.00
38020;DHT22;23829;51.350;17.286;2023-02-28T12:38:37;19.90;24.50
38020;DHT22;23829;51.350;17.286;2023-02-28T12:41:18;19.90;24.20
38020;DHT22;23829;51.350;17.286;2023-02-28T12:43:51;19.30;25.00
38020;DHT22;23829;51.350;17.286;2023-02-28T12:46:24;19.20;24.80
38020;DHT22;23829;51.350;17.286;2023-02-28T12:49:25;19.60;25.10
38020;DHT22;23829;51.350;17.286;2023-02-28T12:51:53;20.10;24.40
38020;DHT22;23829;51.350;17.286;2023-02-28T12:54:29;20.00;24.30
38020;DHT22;23829;51.350;17.286;2023-02-28T12:57:15;19.90;24.50
38020;DHT22;23829;51.350;17.286;2023-02-28T12:59:56;20.10;24.40
38020;DHT22;23829;51.350;17.286;2023-02-28T13:05:32;19.90;24.30
38020;DHT22;23829;51.350;17.286;2023-02-28T13:08:35;19.60;24.70
38020;DHT22;23829;51.350;17.286;2023-02-28T13:11:04;19.70;24.50
38020;DHT22;23829;51.350;17.286;2023-02-28T13:13:31;19.80;24.10
38020;DHT22;23829;51.350;17.286;2023-02-28T13:16:04;20.00;24.20
38020;DHT22;23829;51.350;17.286;2023-02-28T13:18:38;20.20;23.50
38020;DHT22;23829;51.350;17.286;2023-02-28T13:21:32;19.70;24.40
38020;DHT22;23829;51.350;17.286;2023-02-28T13:24:02;19.60;24.50
38020;DHT22;23829;51.350;17.286;2023-02-28T13:32:40;20.10;24.60
38020;DHT22;23829;51.350;17.286;2023-02-28T13:45:22;20.30;23.90
38020;DHT22;23829;51.350;17.286;2023-02-28T13:48:02;20.30;23.90
38020;DHT22;23829;51.350;17.286;2023-02-28T13:58:55;19.70;24.20
38020;DHT22;23829;51.350;17.286;2023-02-28T14:02:03;19.60;24.40
38020;DHT22;23829;51.350;17.286;2023-02-28T14:07:04;20.20;24.10
38020;DHT22;23829;51.350;17.286;2023-02-28T14:17:16;20.00;24.10
38020;DHT22;23829;51.350;17.286;2023-02-28T14:19:46;19.90;24.50
38020;DHT22;23829;51.350;17.286;2023-02-28T14:33:04;18.90;25.70
38020;DHT22;23829;51.350;17.286;2023-02-28T14:38:24;18.90;25.60
38020;DHT22;23829;51.350;17.286;2023-02-28T14:40:52;18.60;25.90
38020;DHT22;23829;51.350;17.286;2023-02-28T14:43:24;19.30;25.80
38020;DHT22;23829;51.350;17.286;2023-02-28T14:45:55;19.40;25.40
38020;DHT22;23829;51.350;17.286;2023-02-28T14:48:24;19.20;25.70
38020;DHT22;23829;51.350;17.286;2023-02-28T14:50:54;19.40;25.70
38020;DHT22;23829;51.350;17.286;2023-02-28T14:53:23;19.00;25.80
38020;DHT22;23829;51.350;17.286;2023-02-28T14:55:51;19.30;25.70
38020;DHT22;23829;51.350;17.286;2023-02-28T14:58:27;19.00;25.60
38020;DHT22;23829;51.350;17.286;2023-02-28T15:00:56;18.30;26.20
38020;DHT22;23829;51.350;17.286;2023-02-28T15:03:32;18.00;26.60
38020;DHT22;23829;51.350;17.286;2023-02-28T15:06:13;18.60;26.10
38020;DHT22;23829;51.350;17.286;2023-02-28T15:08:40;19.20;25.60
38020;DHT22;23829;51.350;17.286;2023-02-28T15:11:17;18.80;25.50
38020;DHT22;23829;51.350;17.286;2023-02-28T15:13:48;18.90;25.60
38020;DHT22;23829;51.350;17.286;2023-02-28T15:16:28;19.20;25.40
38020;DHT22;23829;51.350;17.286;2023-02-28T15:21:32;19.30;25.10
38020;DHT22;23829;51.350;17.286;2023-02-28T15:26:37;19.80;24.50
38020;DHT22;23829;51.350;17.286;2023-02-28T15:29:07;19.80;24.50
38020;DHT22;23829;51.350;17.286;2023-02-28T15:31:45;19.90;24.50
38020;DHT22;23829;51.350;17.286;2023-02-28T15:34:19;19.80;24.40
38020;DHT22;23829;51.350;17.286;2023-02-28T15:36:47;19.90;24.40
38020;DHT22;23829;51.350;17.286;2023-02-28T15:39:23;19.90;24.50
38020;DHT22;23829;51.350;17.286;2023-02-28T15:41:50;20.10;24.60
38020;DHT22;23829;51.350;17.286;2023-02-28T15:49:33;20.20;24.40
38020;DHT22;23829;51.350;17.286;2023-02-28T15:52:01;20.20;24.70
38020;DHT22;23829;51.350;17.286;2023-02-28T15:54:34;20.30;24.40
38020;DHT22;23829;51.350;17.286;2023-02-28T15:57:06;20.10;24.60
38020;DHT22;23829;51.350;17.286;2023-02-28T15:59:37;20.40;24.30
38020;DHT22;23829;51.350;17.286;2023-02-28T16:02:17;20.60;24.10
38020;DHT22;23829;51.350;17.286;2023-02-28T16:04:59;20.50;24.00
38020;DHT22;23829;51.350;17.286;2023-02-28T16:07:26;20.20;24.50
38020;DHT22;23829;51.350;17.286;2023-02-28T16:09:52;20.10;25.10
38020;DHT22;23829;51.350;17.286;2023-02-28T16:12:21;20.20;24.70
38020;DHT22;23829;51.350;17.286;2023-02-28T16:14:52;20.30;24.40
38020;DHT22;23829;51.350;17.286;2023-02-28T16:17:24;20.40;24.50
38020;DHT22;23829;51.350;17.286;2023-02-28T16:19:52;20.30;24.90
38020;DHT22;23829;51.350;17.286;2023-02-28T16:22:18;20.30;25.50
38020;DHT22;23829;51.350;17.286;2023-02-28T16:24:45;20.20;25.30
38020;DHT22;23829;51.350;17.286;2023-02-28T16:27:27;20.10;25.40
38020;DHT22;23829;51.350;17.286;2023-02-28T16:29:55;20.10;25.30
38020;DHT22;23829;51.350;17.286;2023-02-28T16:32:21;20.10;25.40
38020;DHT22;23829;51.350;17.286;2023-02-28T16:34:48;20.00;25.60
38020;DHT22;23829;51.350;17.286;2023-02-28T16:37:16;19.90;25.60
38020;DHT22;23829;51.350;17.286;2023-02-28T16:39:45;19.90;25.70
38020;DHT22;23829;51.350;17.286;2023-02-28T16:42:31;19.90;25.60
38020;DHT22;23829;51.350;17.286;2023-02-28T16:44:58;19.80;25.80
38020;DHT22;23829;51.350;17.286;2023-02-28T16:47:24;19.70;25.70
38020;DHT22;23829;51.350;17.286;2023-02-28T16:49:52;19.90;25.60
38020;DHT22;23829;51.350;17.286;2023-02-28T16:52:19;19.90;25.40
38020;DHT22;23829;51.350;17.286;2023-02-28T16:54:45;19.70;25.70
38020;DHT22;23829;51.350;17.286;2023-02-28T16:57:22;19.60;25.70
38020;DHT22;23829;51.350;17.286;2023-02-28T16:59:50;19.50;26.00
38020;DHT22;23829;51.350;17.286;2023-02-28T17:02:17;19.50;26.00
38020;DHT22;23829;51.350;17.286;2023-02-28T17:04:46;19.50;26.00
38020;DHT22;23829;51.350;17.286;2023-02-28T17:07:14;19.40;26.00
38020;DHT22;23829;51.350;17.286;2023-02-28T17:09:43;19.30;26.00
38020;DHT22;23829;51.350;17.286;2023-02-28T17:12:09;19.10;26.30
38020;DHT22;23829;51.350;17.286;2023-02-28T17:14:37;19.00;26.50
38020;DHT22;23829;51.350;17.286;2023-02-28T17:17:05;19.00;26.60
38020;DHT22;23829;51.350;17.286;2023-02-28T17:19:32;19.20;26.30
38020;DHT22;23829;51.350;17.286;2023-02-28T17:21:59;19.20;26.10
38020;DHT22;23829;51.350;17.286;2023-02-28T17:24:26;19.10;26.30
38020;DHT22;23829;51.350;17.286;2023-02-28T17:26:53;19.00;26.30
38020;DHT22;23829;51.350;17.286;2023-02-28T17:29:21;18.90;26.50
38020;DHT22;23829;51.350;17.286;2023-02-28T17:31:47;18.80;26.60
38020;DHT22;23829;51.350;17.286;2023-02-28T17:34:14;18.90;26.70
38020;DHT22;23829;51.350;17.286;2023-02-28T17:36:45;18.90;26.60
38020;DHT22;23829;51.350;17.286;2023-02-28T17:39:14;19.00;26.40
38020;DHT22;23829;51.350;17.286;2023-02-28T17:41:41;18.90;26.60
38020;DHT22;23829;51.350;17.286;2023-02-28T17:44:08;18.80;26.80
38020;DHT22;23829;51.350;17.286;2023-02-28T17:46:35;18.70;26.80
38020;DHT22;23829;51.350;17.286;2023-02-28T17:49:03;18.70;27.10
38020;DHT22;23829;51.350;17.286;2023-02-28T17:51:29;18.60;27.50
38020;DHT22;23829;51.350;17.286;2023-02-28T17:53:56;18.60;27.10
38020;DHT22;23829;51.350;17.286;2023-02-28T17:56:24;18.60;27.20
38020;DHT22;23829;51.350;17.286;2023-02-28T17:58:53;18.50;27.30